sensor_id;sensor_type;location;lat;lon;timestamp;P1;durP1;ratioP1;P2;durP2;ratioP2
22929;SDS011;11630;42.660;23.292;2023-01-25T00:01:51;11.20;;;6.53;;
22929;SDS011;11630;42.660;23.292;2023-01-25T00:04:23;10.00;;;6.70;;
22929;SDS011;11630;42.660;23.292;2023-01-25T00:06:53;10.13;;;6.50;;
22929;SDS011;11630;42.660;23.292;2023-01-25T00:09:23;11.37;;;6.90;;
22929;SDS011;11630;42.660;23.292;2023-01-25T00:11:54;8.90;;;6.80;;
22929;SDS011;11630;42.660;23.292;2023-01-25T00:14:24;9.70;;;7.03;;
22929;SDS011;11630;42.660;23.292;2023-01-25T00:16:56;10.63;;;7.10;;
22929;SDS011;11630;42.660;23.292;2023-01-25T00:19:26;7.70;;;6.50;;
22929;SDS011;11630;42.660;23.292;2023-01-25T00:21:57;13.20;;;7.13;;
22929;SDS011;11630;42.660;23.292;2023-01-25T00:24:27;8.20;;;5.90;;
22929;SDS011;11630;42.660;23.292;2023-01-25T00:26:57;8.93;;;6.43;;
22929;SDS011;11630;42.660;23.292;2023-01-25T00:29:28;11.73;;;7.27;;
22929;SDS011;11630;42.660;23.292;2023-01-25T00:34:44;10.83;;;7.53;;
22929;SDS011;11630;42.660;23.292;2023-01-25T00:39:58;8.67;;;6.63;;
22929;SDS011;11630;42.660;23.292;2023-01-25T00:42:29;9.77;;;6.60;;
22929;SDS011;11630;42.660;23.292;2023-01-25T00:44:59;10.30;;;6.80;;
22929;SDS011;11630;42.660;23.292;2023-01-25T00:47:30;10.83;;;7.30;;
22929;SDS011;11630;42.660;23.292;2023-01-25T00:50:00;10.67;;;6.80;;
22929;SDS011;11630;42.660;23.292;2023-01-25T00:52:31;11.33;;;7.43;;
22929;SDS011;11630;42.660;23.292;2023-01-25T00:55:01;9.23;;;6.53;;
22929;SDS011;11630;42.660;23.292;2023-01-25T00:57:31;10.63;;;7.17;;
22929;SDS011;11630;42.660;23.292;2023-01-25T01:00:02;10.53;;;6.97;;
22929;SDS011;11630;42.660;23.292;2023-01-25T01:02:34;8.60;;;6.63;;
22929;SDS011;11630;42.660;23.292;2023-01-25T01:05:06;10.67;;;7.33;;
22929;SDS011;11630;42.660;23.292;2023-01-25T01:07:37;11.63;;;6.53;;
22929;SDS011;11630;42.660;23.292;2023-01-25T01:10:07;9.40;;;6.87;;
22929;SDS011;11630;42.660;23.292;2023-01-25T01:12:38;9.63;;;7.03;;
22929;SDS011;11630;42.660;23.292;2023-01-25T01:15:09;10.83;;;6.77;;
22929;SDS011;11630;42.660;23.292;2023-01-25T01:17:40;9.57;;;7.33;;
22929;SDS011;11630;42.660;23.292;2023-01-25T01:20:11;10.13;;;6.57;;
22929;SDS011;11630;42.660;23.292;2023-01-25T01:22:42;9.00;;;6.50;;
22929;SDS011;11630;42.660;23.292;2023-01-25T01:25:13;7.97;;;6.23;;
22929;SDS011;11630;42.660;23.292;2023-01-25T01:27:44;10.57;;;6.10;;
22929;SDS011;11630;42.660;23.292;2023-01-25T01:30:15;8.03;;;6.33;;
22929;SDS011;11630;42.660;23.292;2023-01-25T01:32:46;8.03;;;6.03;;
22929;SDS011;11630;42.660;23.292;2023-01-25T01:35:18;9.50;;;6.37;;
22929;SDS011;11630;42.660;23.292;2023-01-25T01:37:49;8.77;;;5.70;;
22929;SDS011;11630;42.660;23.292;2023-01-25T01:40:19;8.43;;;6.50;;
22929;SDS011;11630;42.660;23.292;2023-01-25T01:45:48;9.83;;;6.40;;
22929;SDS011;11630;42.660;23.292;2023-01-25T01:48:56;6.60;;;5.20;;
22929;SDS011;11630;42.660;23.292;2023-01-25T01:51:27;9.23;;;6.70;;
22929;SDS011;11630;42.660;23.292;2023-01-25T01:54:08;8.27;;;6.13;;
22929;SDS011;11630;42.660;23.292;2023-01-25T01:56:45;9.30;;;6.10;;
22929;SDS011;11630;42.660;23.292;2023-01-25T01:59:21;7.97;;;6.53;;
22929;SDS011;11630;42.660;23.292;2023-01-25T02:01:53;9.07;;;6.53;;
22929;SDS011;11630;42.660;23.292;2023-01-25T02:04:23;8.20;;;6.37;;
22929;SDS011;11630;42.660;23.292;2023-01-25T02:07:05;8.63;;;6.27;;
22929;SDS011;11630;42.660;23.292;2023-01-25T02:09:35;6.87;;;5.30;;
22929;SDS011;11630;42.660;23.292;2023-01-25T02:12:07;8.43;;;5.87;;
22929;SDS011;11630;42.660;23.292;2023-01-25T02:14:44;8.73;;;5.63;;
22929;SDS011;11630;42.660;23.292;2023-01-25T02:17:13;8.60;;;5.57;;
22929;SDS011;11630;42.660;23.292;2023-01-25T02:19:53;11.40;;;6.23;;
22929;SDS011;11630;42.660;23.292;2023-01-25T02:22:37;7.73;;;6.00;;
22929;SDS011;11630;42.660;23.292;2023-01-25T02:25:05;7.63;;;6.00;;
22929;SDS011;11630;42.660;23.292;2023-01-25T02:27:40;9.07;;;6.07;;
22929;SDS011;11630;42.660;23.292;2023-01-25T02:30:10;6.40;;;5.53;;
22929;SDS011;11630;42.660;23.292;2023-01-25T02:32:41;10.40;;;5.97;;
22929;SDS011;11630;42.660;23.292;2023-01-25T02:35:22;7.33;;;5.53;;
22929;SDS011;11630;42.660;23.292;2023-01-25T02:37:55;7.63;;;5.93;;
22929;SDS011;11630;42.660;23.292;2023-01-25T02:40:26;10.77;;;6.43;;
22929;SDS011;11630;42.660;23.292;2023-01-25T02:43:00;9.67;;;6.27;;
22929;SDS011;11630;42.660;23.292;2023-01-25T02:45:31;7.30;;;5.03;;
22929;SDS011;11630;42.660;23.292;2023-01-25T02:48:01;5.13;;;4.20;;
22929;SDS011;11630;42.660;23.292;2023-01-25T02:50:31;5.13;;;4.27;;
22929;SDS011;11630;42.660;23.292;2023-01-25T02:53:02;5.10;;;3.83;;
22929;SDS011;11630;42.660;23.292;2023-01-25T02:55:33;5.33;;;3.70;;
22929;SDS011;11630;42.660;23.292;2023-01-25T02:58:04;6.43;;;4.33;;
22929;SDS011;11630;42.660;23.292;2023-01-25T03:00:35;6.37;;;4.53;;
22929;SDS011;11630;42.660;23.292;2023-01-25T03:03:05;5.57;;;3.83;;
22929;SDS011;11630;42.660;23.292;2023-01-25T03:05:36;6.27;;;4.90;;
22929;SDS011;11630;42.660;23.292;2023-01-25T03:08:07;6.37;;;4.77;;
22929;SDS011;11630;42.660;23.292;2023-01-25T03:10:37;5.10;;;3.80;;
22929;SDS011;11630;42.660;23.292;2023-01-25T03:13:08;4.67;;;4.17;;
22929;SDS011;11630;42.660;23.292;2023-01-25T03:15:38;6.03;;;4.47;;
22929;SDS011;11630;42.660;23.292;2023-01-25T03:18:09;4.37;;;3.97;;
22929;SDS011;11630;42.660;23.292;2023-01-25T03:20:40;6.63;;;4.67;;
22929;SDS011;11630;42.660;23.292;2023-01-25T03:23:11;6.87;;;4.33;;
22929;SDS011;11630;42.660;23.292;2023-01-25T03:25:42;5.17;;;4.03;;
22929;SDS011;11630;42.660;23.292;2023-01-25T03:28:13;4.87;;;3.90;;
22929;SDS011;11630;42.660;23.292;2023-01-25T03:30:43;5.23;;;4.00;;
22929;SDS011;11630;42.660;23.292;2023-01-25T03:33:14;5.73;;;4.90;;
22929;SDS011;11630;42.660;23.292;2023-01-25T03:35:45;4.90;;;4.40;;
22929;SDS011;11630;42.660;23.292;2023-01-25T03:38:17;5.63;;;4.90;;
22929;SDS011;11630;42.660;23.292;2023-01-25T03:40:49;6.13;;;4.67;;
22929;SDS011;11630;42.660;23.292;2023-01-25T03:43:18;5.67;;;4.40;;
22929;SDS011;11630;42.660;23.292;2023-01-25T03:45:52;7.37;;;4.97;;
22929;SDS011;11630;42.660;23.292;2023-01-25T03:48:24;6.20;;;4.67;;
22929;SDS011;11630;42.660;23.292;2023-01-25T03:50:56;8.33;;;4.73;;
22929;SDS011;11630;42.660;23.292;2023-01-25T03:53:30;7.73;;;5.17;;
22929;SDS011;11630;42.660;23.292;2023-01-25T03:56:02;6.90;;;5.23;;
22929;SDS011;11630;42.660;23.292;2023-01-25T03:58:33;7.40;;;5.40;;
22929;SDS011;11630;42.660;23.292;2023-01-25T04:01:05;8.33;;;4.63;;
22929;SDS011;11630;42.660;23.292;2023-01-25T04:03:36;7.47;;;5.57;;
22929;SDS011;11630;42.660;23.292;2023-01-25T04:06:08;7.90;;;5.53;;
22929;SDS011;11630;42.660;23.292;2023-01-25T04:08:42;5.80;;;4.63;;
22929;SDS011;11630;42.660;23.292;2023-01-25T04:11:13;7.23;;;5.57;;
22929;SDS011;11630;42.660;23.292;2023-01-25T04:13:43;8.23;;;5.17;;
22929;SDS011;11630;42.660;23.292;2023-01-25T04:16:13;9.57;;;5.30;;
22929;SDS011;11630;42.660;23.292;2023-01-25T04:18:44;8.07;;;5.00;;
22929;SDS011;11630;42.660;23.292;2023-01-25T04:21:18;6.43;;;4.90;;
22929;SDS011;11630;42.660;23.292;2023-01-25T04:23:49;7.60;;;5.20;;
22929;SDS011;11630;42.660;23.292;2023-01-25T04:26:20;5.03;;;4.40;;
22929;SDS011;11630;42.660;23.292;2023-01-25T04:28:50;6.47;;;5.13;;
22929;SDS011;11630;42.660;23.292;2023-01-25T04:31:27;6.03;;;4.90;;
22929;SDS011;11630;42.660;23.292;2023-01-25T04:33:58;6.00;;;4.80;;
22929;SDS011;11630;42.660;23.292;2023-01-25T04:36:28;7.90;;;5.30;;
22929;SDS011;11630;42.660;23.292;2023-01-25T04:38:59;7.00;;;5.50;;
22929;SDS011;11630;42.660;23.292;2023-01-25T04:41:30;6.13;;;4.97;;
22929;SDS011;11630;42.660;23.292;2023-01-25T04:44:01;8.63;;;4.97;;
22929;SDS011;11630;42.660;23.292;2023-01-25T04:46:32;5.13;;;4.47;;
22929;SDS011;11630;42.660;23.292;2023-01-25T04:49:01;6.13;;;4.83;;
22929;SDS011;11630;42.660;23.292;2023-01-25T04:51:31;5.53;;;4.30;;
22929;SDS011;11630;42.660;23.292;2023-01-25T04:54:02;5.97;;;4.93;;
22929;SDS011;11630;42.660;23.292;2023-01-25T04:56:33;4.97;;;4.23;;
22929;SDS011;11630;42.660;23.292;2023-01-25T04:59:04;6.37;;;4.13;;
22929;SDS011;11630;42.660;23.292;2023-01-25T05:01:34;10.50;;;3.80;;
22929;SDS011;11630;42.660;23.292;2023-01-25T05:04:05;4.63;;;4.03;;
22929;SDS011;11630;42.660;23.292;2023-01-25T05:06:36;7.17;;;4.40;;
22929;SDS011;11630;42.660;23.292;2023-01-25T05:09:08;5.73;;;3.97;;
22929;SDS011;11630;42.660;23.292;2023-01-25T05:11:39;4.97;;;4.30;;
22929;SDS011;11630;42.660;23.292;2023-01-25T05:14:09;5.60;;;4.57;;
22929;SDS011;11630;42.660;23.292;2023-01-25T05:16:40;4.97;;;4.07;;
22929;SDS011;11630;42.660;23.292;2023-01-25T05:19:10;4.60;;;3.73;;
22929;SDS011;11630;42.660;23.292;2023-01-25T05:21:41;5.00;;;4.47;;
22929;SDS011;11630;42.660;23.292;2023-01-25T05:24:26;3.90;;;3.50;;
22929;SDS011;11630;42.660;23.292;2023-01-25T05:26:58;5.40;;;4.57;;
22929;SDS011;11630;42.660;23.292;2023-01-25T05:29:33;5.23;;;3.73;;
22929;SDS011;11630;42.660;23.292;2023-01-25T05:32:07;4.10;;;3.70;;
22929;SDS011;11630;42.660;23.292;2023-01-25T05:34:41;4.30;;;3.70;;
22929;SDS011;11630;42.660;23.292;2023-01-25T05:37:12;4.33;;;3.93;;
22929;SDS011;11630;42.660;23.292;2023-01-25T05:39:44;5.03;;;4.07;;
22929;SDS011;11630;42.660;23.292;2023-01-25T05:42:16;5.63;;;3.90;;
22929;SDS011;11630;42.660;23.292;2023-01-25T05:44:46;6.27;;;4.37;;
22929;SDS011;11630;42.660;23.292;2023-01-25T05:47:16;5.70;;;3.60;;
22929;SDS011;11630;42.660;23.292;2023-01-25T05:49:47;4.70;;;4.23;;
22929;SDS011;11630;42.660;23.292;2023-01-25T05:52:17;6.47;;;4.70;;
22929;SDS011;11630;42.660;23.292;2023-01-25T05:54:48;5.20;;;4.70;;
22929;SDS011;11630;42.660;23.292;2023-01-25T05:57:19;5.20;;;4.37;;
22929;SDS011;11630;42.660;23.292;2023-01-25T05:59:50;6.60;;;4.07;;
22929;SDS011;11630;42.660;23.292;2023-01-25T06:02:20;4.83;;;4.17;;
22929;SDS011;11630;42.660;23.292;2023-01-25T06:04:51;4.27;;;3.70;;
22929;SDS011;11630;42.660;23.292;2023-01-25T06:07:22;8.27;;;4.60;;
22929;SDS011;11630;42.660;23.292;2023-01-25T06:09:52;5.77;;;4.40;;
22929;SDS011;11630;42.660;23.292;2023-01-25T06:12:24;5.57;;;4.97;;
22929;SDS011;11630;42.660;23.292;2023-01-25T06:14:55;6.63;;;4.70;;
22929;SDS011;11630;42.660;23.292;2023-01-25T06:17:26;6.97;;;4.60;;
22929;SDS011;11630;42.660;23.292;2023-01-25T06:19:57;8.00;;;4.47;;
22929;SDS011;11630;42.660;23.292;2023-01-25T06:22:28;6.10;;;4.87;;
22929;SDS011;11630;42.660;23.292;2023-01-25T06:24:59;7.53;;;5.27;;
22929;SDS011;11630;42.660;23.292;2023-01-25T06:27:30;7.27;;;5.10;;
22929;SDS011;11630;42.660;23.292;2023-01-25T06:29:59;7.50;;;4.87;;
22929;SDS011;11630;42.660;23.292;2023-01-25T06:32:30;9.00;;;6.00;;
22929;SDS011;11630;42.660;23.292;2023-01-25T06:35:00;15.73;;;8.53;;
22929;SDS011;11630;42.660;23.292;2023-01-25T06:37:30;15.43;;;8.40;;
22929;SDS011;11630;42.660;23.292;2023-01-25T06:40:01;9.83;;;6.67;;
22929;SDS011;11630;42.660;23.292;2023-01-25T06:42:31;7.83;;;6.00;;
22929;SDS011;11630;42.660;23.292;2023-01-25T06:45:02;10.07;;;5.83;;
22929;SDS011;11630;42.660;23.292;2023-01-25T06:47:33;9.33;;;6.60;;
22929;SDS011;11630;42.660;23.292;2023-01-25T06:50:06;10.83;;;7.77;;
22929;SDS011;11630;42.660;23.292;2023-01-25T06:52:39;11.10;;;7.27;;
22929;SDS011;11630;42.660;23.292;2023-01-25T06:55:10;7.80;;;6.20;;
22929;SDS011;11630;42.660;23.292;2023-01-25T06:57:41;5.20;;;4.70;;
22929;SDS011;11630;42.660;23.292;2023-01-25T07:00:12;5.77;;;4.87;;
22929;SDS011;11630;42.660;23.292;2023-01-25T07:02:43;7.85;;;5.55;;
22929;SDS011;11630;42.660;23.292;2023-01-25T07:05:13;6.57;;;5.30;;
22929;SDS011;11630;42.660;23.292;2023-01-25T07:07:44;10.53;;;6.07;;
22929;SDS011;11630;42.660;23.292;2023-01-25T07:10:15;6.90;;;5.90;;
22929;SDS011;11630;42.660;23.292;2023-01-25T07:12:45;10.53;;;6.73;;
22929;SDS011;11630;42.660;23.292;2023-01-25T07:15:16;8.43;;;6.70;;
22929;SDS011;11630;42.660;23.292;2023-01-25T07:17:46;8.23;;;6.77;;
22929;SDS011;11630;42.660;23.292;2023-01-25T07:20:17;8.50;;;6.40;;
22929;SDS011;11630;42.660;23.292;2023-01-25T07:22:47;8.73;;;6.80;;
22929;SDS011;11630;42.660;23.292;2023-01-25T07:25:18;6.80;;;5.50;;
22929;SDS011;11630;42.660;23.292;2023-01-25T07:27:49;10.20;;;5.83;;
22929;SDS011;11630;42.660;23.292;2023-01-25T07:30:21;6.13;;;5.53;;
22929;SDS011;11630;42.660;23.292;2023-01-25T07:32:52;9.17;;;6.57;;
22929;SDS011;11630;42.660;23.292;2023-01-25T07:35:25;8.03;;;6.97;;
22929;SDS011;11630;42.660;23.292;2023-01-25T07:37:55;10.03;;;7.40;;
22929;SDS011;11630;42.660;23.292;2023-01-25T07:40:26;14.60;;;8.47;;
22929;SDS011;11630;42.660;23.292;2023-01-25T07:42:56;10.90;;;7.87;;
22929;SDS011;11630;42.660;23.292;2023-01-25T07:45:26;8.93;;;7.23;;
22929;SDS011;11630;42.660;23.292;2023-01-25T07:47:59;9.37;;;7.93;;
22929;SDS011;11630;42.660;23.292;2023-01-25T07:50:31;11.37;;;7.07;;
22929;SDS011;11630;42.660;23.292;2023-01-25T07:53:02;11.43;;;7.37;;
22929;SDS011;11630;42.660;23.292;2023-01-25T07:55:33;15.33;;;12.37;;
22929;SDS011;11630;42.660;23.292;2023-01-25T07:58:04;28.93;;;23.90;;
22929;SDS011;11630;42.660;23.292;2023-01-25T08:00:35;30.73;;;27.40;;
22929;SDS011;11630;42.660;23.292;2023-01-25T08:03:05;36.37;;;29.23;;
22929;SDS011;11630;42.660;23.292;2023-01-25T08:05:36;26.37;;;19.73;;
22929;SDS011;11630;42.660;23.292;2023-01-25T08:08:07;21.63;;;17.87;;
22929;SDS011;11630;42.660;23.292;2023-01-25T08:10:38;17.20;;;14.60;;
22929;SDS011;11630;42.660;23.292;2023-01-25T08:13:11;18.27;;;12.83;;
22929;SDS011;11630;42.660;23.292;2023-01-25T08:15:42;18.13;;;11.73;;
22929;SDS011;11630;42.660;23.292;2023-01-25T08:18:17;15.07;;;11.43;;
22929;SDS011;11630;42.660;23.292;2023-01-25T08:20:47;15.47;;;10.37;;
22929;SDS011;11630;42.660;23.292;2023-01-25T08:23:18;14.97;;;10.67;;
22929;SDS011;11630;42.660;23.292;2023-01-25T08:25:49;14.83;;;11.10;;
22929;SDS011;11630;42.660;23.292;2023-01-25T08:28:21;16.40;;;11.60;;
22929;SDS011;11630;42.660;23.292;2023-01-25T08:30:52;16.33;;;12.13;;
22929;SDS011;11630;42.660;23.292;2023-01-25T08:33:25;18.83;;;10.63;;
22929;SDS011;11630;42.660;23.292;2023-01-25T08:35:59;17.30;;;10.93;;
22929;SDS011;11630;42.660;23.292;2023-01-25T08:38:29;16.37;;;10.23;;
22929;SDS011;11630;42.660;23.292;2023-01-25T08:41:09;13.50;;;10.67;;
22929;SDS011;11630;42.660;23.292;2023-01-25T08:43:40;15.03;;;10.90;;
22929;SDS011;11630;42.660;23.292;2023-01-25T08:46:12;14.97;;;10.47;;
22929;SDS011;11630;42.660;23.292;2023-01-25T08:48:46;16.63;;;10.97;;
22929;SDS011;11630;42.660;23.292;2023-01-25T08:51:15;14.83;;;11.23;;
22929;SDS011;11630;42.660;23.292;2023-01-25T08:53:47;16.77;;;9.93;;
22929;SDS011;11630;42.660;23.292;2023-01-25T08:56:18;18.47;;;11.47;;
22929;SDS011;11630;42.660;23.292;2023-01-25T08:58:49;17.60;;;13.03;;
22929;SDS011;11630;42.660;23.292;2023-01-25T09:01:19;15.33;;;11.13;;
22929;SDS011;11630;42.660;23.292;2023-01-25T09:03:50;19.90;;;12.20;;
22929;SDS011;11630;42.660;23.292;2023-01-25T09:06:20;14.87;;;10.70;;
22929;SDS011;11630;42.660;23.292;2023-01-25T09:08:51;18.70;;;12.50;;
22929;SDS011;11630;42.660;23.292;2023-01-25T09:11:22;15.60;;;10.67;;
22929;SDS011;11630;42.660;23.292;2023-01-25T09:13:53;15.20;;;11.20;;
22929;SDS011;11630;42.660;23.292;2023-01-25T09:16:24;13.50;;;10.47;;
22929;SDS011;11630;42.660;23.292;2023-01-25T09:18:58;15.47;;;10.90;;
22929;SDS011;11630;42.660;23.292;2023-01-25T09:21:30;17.73;;;11.70;;
22929;SDS011;11630;42.660;23.292;2023-01-25T09:24:01;14.43;;;11.37;;
22929;SDS011;11630;42.660;23.292;2023-01-25T09:26:39;19.50;;;12.07;;
22929;SDS011;11630;42.660;23.292;2023-01-25T09:29:10;21.07;;;13.33;;
22929;SDS011;11630;42.660;23.292;2023-01-25T09:31:46;19.37;;;12.90;;
22929;SDS011;11630;42.660;23.292;2023-01-25T09:34:17;17.03;;;11.93;;
22929;SDS011;11630;42.660;23.292;2023-01-25T09:36:49;18.17;;;12.37;;
22929;SDS011;11630;42.660;23.292;2023-01-25T09:39:18;18.80;;;11.83;;
22929;SDS011;11630;42.660;23.292;2023-01-25T09:45:51;17.13;;;10.43;;
22929;SDS011;11630;42.660;23.292;2023-01-25T09:50:34;11.90;;;10.70;;
22929;SDS011;11630;42.660;23.292;2023-01-25T09:55:51;14.67;;;11.33;;
22929;SDS011;11630;42.660;23.292;2023-01-25T09:58:32;12.13;;;10.37;;
22929;SDS011;11630;42.660;23.292;2023-01-25T10:04:01;14.07;;;9.73;;
22929;SDS011;11630;42.660;23.292;2023-01-25T10:06:36;13.80;;;9.53;;
22929;SDS011;11630;42.660;23.292;2023-01-25T10:11:52;13.30;;;9.43;;
22929;SDS011;11630;42.660;23.292;2023-01-25T10:14:22;16.00;;;9.87;;
22929;SDS011;11630;42.660;23.292;2023-01-25T10:16:55;12.93;;;9.73;;
22929;SDS011;11630;42.660;23.292;2023-01-25T10:30:37;15.87;;;10.67;;
22929;SDS011;11630;42.660;23.292;2023-01-25T10:33:12;14.70;;;9.50;;
22929;SDS011;11630;42.660;23.292;2023-01-25T10:35:43;12.60;;;7.90;;
22929;SDS011;11630;42.660;23.292;2023-01-25T10:38:31;12.23;;;8.70;;
22929;SDS011;11630;42.660;23.292;2023-01-25T10:41:08;8.47;;;7.23;;
22929;SDS011;11630;42.660;23.292;2023-01-25T10:43:41;8.13;;;7.03;;
22929;SDS011;11630;42.660;23.292;2023-01-25T10:46:20;8.87;;;7.20;;
22929;SDS011;11630;42.660;23.292;2023-01-25T10:48:53;11.73;;;7.57;;
22929;SDS011;11630;42.660;23.292;2023-01-25T10:51:28;10.60;;;8.37;;
22929;SDS011;11630;42.660;23.292;2023-01-25T10:54:03;12.53;;;8.97;;
22929;SDS011;11630;42.660;23.292;2023-01-25T10:56:34;11.97;;;7.63;;
22929;SDS011;11630;42.660;23.292;2023-01-25T10:59:14;11.10;;;8.10;;
22929;SDS011;11630;42.660;23.292;2023-01-25T11:01:44;14.47;;;8.77;;
22929;SDS011;11630;42.660;23.292;2023-01-25T11:04:31;13.17;;;9.37;;
22929;SDS011;11630;42.660;23.292;2023-01-25T11:07:03;10.70;;;7.43;;
22929;SDS011;11630;42.660;23.292;2023-01-25T11:09:37;14.80;;;8.53;;
22929;SDS011;11630;42.660;23.292;2023-01-25T11:14:47;7.90;;;7.07;;
22929;SDS011;11630;42.660;23.292;2023-01-25T11:17:21;8.30;;;6.77;;
22929;SDS011;11630;42.660;23.292;2023-01-25T11:20:04;7.70;;;6.27;;
22929;SDS011;11630;42.660;23.292;2023-01-25T11:22:50;9.97;;;6.70;;
22929;SDS011;11630;42.660;23.292;2023-01-25T11:25:27;6.63;;;5.93;;
22929;SDS011;11630;42.660;23.292;2023-01-25T11:28:19;9.37;;;6.47;;
22929;SDS011;11630;42.660;23.292;2023-01-25T11:30:43;7.27;;;6.57;;
22929;SDS011;11630;42.660;23.292;2023-01-25T11:33:15;9.27;;;7.10;;
22929;SDS011;11630;42.660;23.292;2023-01-25T11:38:35;8.93;;;7.17;;
22929;SDS011;11630;42.660;23.292;2023-01-25T11:41:20;9.63;;;7.63;;
22929;SDS011;11630;42.660;23.292;2023-01-25T11:52:31;13.60;;;8.57;;
22929;SDS011;11630;42.660;23.292;2023-01-25T11:55:09;14.60;;;8.43;;
22929;SDS011;11630;42.660;23.292;2023-01-25T11:58:02;11.37;;;7.30;;
22929;SDS011;11630;42.660;23.292;2023-01-25T12:06:03;18.10;;;8.80;;
22929;SDS011;11630;42.660;23.292;2023-01-25T12:14:05;12.83;;;7.10;;
22929;SDS011;11630;42.660;23.292;2023-01-25T12:16:56;10.00;;;7.10;;
22929;SDS011;11630;42.660;23.292;2023-01-25T12:25:02;8.37;;;7.03;;
22929;SDS011;11630;42.660;23.292;2023-01-25T12:27:54;8.33;;;6.97;;
22929;SDS011;11630;42.660;23.292;2023-01-25T12:30:23;8.47;;;6.93;;
22929;SDS011;11630;42.660;23.292;2023-01-25T12:33:14;8.00;;;6.60;;
22929;SDS011;11630;42.660;23.292;2023-01-25T12:35:45;9.20;;;7.40;;
22929;SDS011;11630;42.660;23.292;2023-01-25T12:38:21;11.80;;;7.30;;
22929;SDS011;11630;42.660;23.292;2023-01-25T12:40:55;10.60;;;7.73;;
22929;SDS011;11630;42.660;23.292;2023-01-25T12:43:30;9.27;;;7.47;;
22929;SDS011;11630;42.660;23.292;2023-01-25T12:46:13;8.60;;;7.53;;
22929;SDS011;11630;42.660;23.292;2023-01-25T12:48:41;11.77;;;6.90;;
22929;SDS011;11630;42.660;23.292;2023-01-25T12:51:14;13.80;;;7.03;;
22929;SDS011;11630;42.660;23.292;2023-01-25T12:53:46;8.17;;;7.10;;
22929;SDS011;11630;42.660;23.292;2023-01-25T12:56:32;11.60;;;7.60;;
22929;SDS011;11630;42.660;23.292;2023-01-25T12:59:16;7.20;;;6.37;;
22929;SDS011;11630;42.660;23.292;2023-01-25T13:01:48;12.03;;;6.10;;
22929;SDS011;11630;42.660;23.292;2023-01-25T13:07:25;8.00;;;6.50;;
22929;SDS011;11630;42.660;23.292;2023-01-25T13:10:12;15.27;;;8.23;;
22929;SDS011;11630;42.660;23.292;2023-01-25T13:12:54;12.60;;;8.37;;
22929;SDS011;11630;42.660;23.292;2023-01-25T13:15:33;11.67;;;7.43;;
22929;SDS011;11630;42.660;23.292;2023-01-25T13:21:09;12.77;;;7.13;;
22929;SDS011;11630;42.660;23.292;2023-01-25T13:23:44;13.77;;;7.93;;
22929;SDS011;11630;42.660;23.292;2023-01-25T13:28:55;10.03;;;7.10;;
22929;SDS011;11630;42.660;23.292;2023-01-25T13:37:15;9.23;;;6.67;;
22929;SDS011;11630;42.660;23.292;2023-01-25T13:39:58;13.27;;;8.27;;
22929;SDS011;11630;42.660;23.292;2023-01-25T13:42:32;11.63;;;5.93;;
22929;SDS011;11630;42.660;23.292;2023-01-25T13:45:18;6.17;;;5.40;;
22929;SDS011;11630;42.660;23.292;2023-01-25T13:48:05;9.63;;;5.80;;
22929;SDS011;11630;42.660;23.292;2023-01-25T13:50:35;6.73;;;5.53;;
22929;SDS011;11630;42.660;23.292;2023-01-25T13:53:19;7.03;;;6.33;;
22929;SDS011;11630;42.660;23.292;2023-01-25T13:55:52;8.57;;;7.10;;
22929;SDS011;11630;42.660;23.292;2023-01-25T13:58:26;12.27;;;7.27;;
22929;SDS011;11630;42.660;23.292;2023-01-25T14:01:12;15.47;;;7.47;;
22929;SDS011;11630;42.660;23.292;2023-01-25T14:03:51;16.90;;;8.50;;
22929;SDS011;11630;42.660;23.292;2023-01-25T14:06:36;9.37;;;7.63;;
22929;SDS011;11630;42.660;23.292;2023-01-25T14:09:11;15.27;;;8.13;;
22929;SDS011;11630;42.660;23.292;2023-01-25T14:11:45;9.33;;;7.87;;
22929;SDS011;11630;42.660;23.292;2023-01-25T14:17:14;10.67;;;7.30;;
22929;SDS011;11630;42.660;23.292;2023-01-25T14:19:48;11.83;;;8.47;;
22929;SDS011;11630;42.660;23.292;2023-01-25T14:22:24;11.40;;;7.57;;
22929;SDS011;11630;42.660;23.292;2023-01-25T14:25:02;11.87;;;8.57;;
22929;SDS011;11630;42.660;23.292;2023-01-25T14:27:39;9.67;;;8.00;;
22929;SDS011;11630;42.660;23.292;2023-01-25T14:30:17;11.03;;;8.40;;
22929;SDS011;11630;42.660;23.292;2023-01-25T14:32:54;9.37;;;7.70;;
22929;SDS011;11630;42.660;23.292;2023-01-25T14:41:21;13.50;;;9.73;;
22929;SDS011;11630;42.660;23.292;2023-01-25T14:43:52;12.87;;;9.43;;
22929;SDS011;11630;42.660;23.292;2023-01-25T14:46:30;13.30;;;9.50;;
22929;SDS011;11630;42.660;23.292;2023-01-25T14:51:58;10.40;;;8.00;;
22929;SDS011;11630;42.660;23.292;2023-01-25T14:54:34;10.60;;;8.33;;
22929;SDS011;11630;42.660;23.292;2023-01-25T14:57:06;11.30;;;8.90;;
22929;SDS011;11630;42.660;23.292;2023-01-25T14:59:40;11.47;;;8.53;;
22929;SDS011;11630;42.660;23.292;2023-01-25T15:02:22;10.37;;;8.60;;
22929;SDS011;11630;42.660;23.292;2023-01-25T15:07:43;11.73;;;9.03;;
22929;SDS011;11630;42.660;23.292;2023-01-25T15:10:19;11.43;;;8.97;;
22929;SDS011;11630;42.660;23.292;2023-01-25T15:12:57;11.33;;;9.20;;
22929;SDS011;11630;42.660;23.292;2023-01-25T15:15:54;13.33;;;9.73;;
22929;SDS011;11630;42.660;23.292;2023-01-25T15:21:19;11.67;;;8.80;;
22929;SDS011;11630;42.660;23.292;2023-01-25T15:23:54;11.33;;;8.43;;
22929;SDS011;11630;42.660;23.292;2023-01-25T15:26:26;18.40;;;9.33;;
22929;SDS011;11630;42.660;23.292;2023-01-25T15:29:00;13.33;;;9.13;;
22929;SDS011;11630;42.660;23.292;2023-01-25T15:31:32;14.07;;;10.47;;
22929;SDS011;11630;42.660;23.292;2023-01-25T15:34:03;16.20;;;10.50;;
22929;SDS011;11630;42.660;23.292;2023-01-25T15:36:35;18.53;;;13.30;;
22929;SDS011;11630;42.660;23.292;2023-01-25T15:39:09;13.80;;;9.77;;
22929;SDS011;11630;42.660;23.292;2023-01-25T15:41:41;13.73;;;9.73;;
22929;SDS011;11630;42.660;23.292;2023-01-25T15:44:13;12.47;;;9.37;;
22929;SDS011;11630;42.660;23.292;2023-01-25T15:46:45;13.77;;;9.23;;
22929;SDS011;11630;42.660;23.292;2023-01-25T15:49:17;12.53;;;9.20;;
22929;SDS011;11630;42.660;23.292;2023-01-25T15:51:54;12.63;;;7.90;;
22929;SDS011;11630;42.660;23.292;2023-01-25T15:54:25;10.90;;;9.63;;
22929;SDS011;11630;42.660;23.292;2023-01-25T15:56:57;13.47;;;9.93;;
22929;SDS011;11630;42.660;23.292;2023-01-25T15:59:29;14.80;;;9.40;;
22929;SDS011;11630;42.660;23.292;2023-01-25T16:02:00;14.33;;;10.13;;
22929;SDS011;11630;42.660;23.292;2023-01-25T16:04:30;12.43;;;9.93;;
22929;SDS011;11630;42.660;23.292;2023-01-25T16:07:01;15.97;;;9.63;;
22929;SDS011;11630;42.660;23.292;2023-01-25T16:09:32;13.27;;;9.63;;
22929;SDS011;11630;42.660;23.292;2023-01-25T16:12:03;13.27;;;10.27;;
22929;SDS011;11630;42.660;23.292;2023-01-25T16:14:34;12.67;;;9.00;;
22929;SDS011;11630;42.660;23.292;2023-01-25T16:17:05;12.87;;;9.73;;
22929;SDS011;11630;42.660;23.292;2023-01-25T16:19:34;15.43;;;8.80;;
22929;SDS011;11630;42.660;23.292;2023-01-25T16:22:04;16.27;;;10.00;;
22929;SDS011;11630;42.660;23.292;2023-01-25T16:24:35;12.70;;;9.57;;
22929;SDS011;11630;42.660;23.292;2023-01-25T16:27:08;14.97;;;11.67;;
22929;SDS011;11630;42.660;23.292;2023-01-25T16:29:40;16.33;;;9.97;;
22929;SDS011;11630;42.660;23.292;2023-01-25T16:32:11;16.87;;;10.67;;
22929;SDS011;11630;42.660;23.292;2023-01-25T16:34:42;12.83;;;9.60;;
22929;SDS011;11630;42.660;23.292;2023-01-25T16:37:14;11.70;;;9.27;;